Date,TemperatureHighF,TemperatureAvgF,TemperatureLowF,DewpointHighF,DewpointAvgF,DewpointLowF,HumidityHigh,HumidityAvg,HumidityLow,PressureMaxIn,PressureMinIn,WindSpeedMaxMPH,WindSpeedAvgMPH,GustSpeedMaxMPH,PrecipitationSumIn
2013-8-13,80.6,72.2,68.5,71.4,63.1,-99.9,98,80,57,29.95,29.89,5,-32,0,0.11
2013-8-14,78.3,69.3,63.0,67.8,64.3,60.0,99,85,61,30.00,29.92,8,1,0,0.00
2013-8-15,76.1,66.2,57.9,65.1,60.3,57.3,99,82,61,30.02,29.96,6,1,0,0.00
2013-8-16,73.9,64.1,57.0,64.4,59.7,56.6,99,86,68,30.01,29.95,4,1,0,0.00
2013-8-17,70.0,64.2,60.1,63.9,61.3,57.8,99,91,74,30.03,29.96,5,0,0,0.52
2013-8-18,75.4,67.4,62.4,68.6,65.3,62.1,99,93,75,30.05,29.97,5,1,0,0.38
2013-8-19,80.1,68.0,64.2,72.9,66.5,63.9,99,95,76,30.03,29.92,5,1,0,0.98
2013-8-20,81.0,73.9,63.0,72.2,68.9,62.7,99,85,70,30.04,29.96,8,1,0,0.00
2013-8-21,73.6,69.0,65.1,70.7,68.0,64.8,99,97,87,30.08,29.97,7,1,0,1.34
2013-8-22,82.8,71.7,63.7,73.9,68.7,63.4,99,91,71,30.02,29.89,5,1,0,0.00
2013-8-23,88.0,73.1,65.1,72.6,67.9,64.8,99,86,57,29.94,29.82,5,1,0,0.00
2013-8-24,86.4,70.4,61.7,71.3,66.7,61.4,99,90,56,30.09,29.90,5,1,0,0.88
2013-8-25,83.5,69.0,57.9,69.1,62.3,57.6,99,82,51,30.19,30.05,6,1,0,0.00
2013-8-26,84.9,67.9,57.0,68.1,62.0,56.7,99,83,54,30.13,29.96,4,0,0,0.00
2013-8-27,84.7,68.5,57.6,72.0,63.7,57.0,99,86,61,29.98,29.85,6,1,0,0.00
2013-8-28,87.3,72.5,61.5,72.7,67.4,61.2,99,86,59,29.88,29.81,6,1,0,0.00
2013-8-29,85.3,73.9,65.1,75.3,69.5,64.8,99,88,67,29.85,29.77,8,1,0,0.00
2013-8-30,88.3,74.0,65.7,74.5,70.4,65.4,99,90,62,29.86,29.76,5,0,0,0.00
2013-8-31,93.6,76.5,68.0,75.2,70.8,67.7,99,85,50,29.82,29.70,4,1,0,0.00
2013-9-1,86.5,72.3,66.7,73.4,69.3,66.4,99,91,61,29.79,29.69,6,0,0,0.22
2013-9-2,83.3,72.0,65.1,72.1,68.8,64.8,99,91,68,29.82,29.71,5,1,0,0.00
2013-9-3,86.5,73.3,66.2,72.9,68.4,65.9,99,87,57,29.85,29.72,5,1,0,0.14
2013-9-4,87.4,70.7,60.4,69.8,65.4,60.1,99,85,55,29.97,29.84,4,1,0,0.00
2013-9-5,83.7,69.3,58.8,70.5,64.4,58.5,99,86,58,30.00,29.93,5,1,0,0.00
2013-9-6,85.1,69.7,57.2,71.6,63.9,56.9,99,84,54,30.01,29.91,5,0,0,0.00
2013-9-7,86.4,69.7,58.3,69.8,64.3,58.0,99,85,53,29.98,29.86,6,0,0,0.00
2013-9-8,87.1,70.3,59.2,72.0,65.0,58.9,99,85,58,29.89,29.81,7,1,0,0.00
2013-9-9,86.2,70.8,61.2,74.2,66.9,60.9,99,89,54,29.99,29.87,5,1,0,1.04
2013-9-10,86.9,72.1,61.3,72.8,67.0,61.0,99,86,55,30.09,29.99,5,1,0,0.00
2013-9-11,86.7,71.8,62.6,72.6,67.0,62.3,99,87,51,30.10,29.96,4,0,0,0.00
2013-9-12,82.9,71.2,62.4,73.5,68.1,62.1,99,91,63,29.97,29.77,6,0,0,0.06
2013-9-13,77.4,67.9,55.0,68.6,62.0,51.4,99,83,55,29.79,29.70,7,2,0,0.03
2013-9-14,77.4,59.8,45.7,62.3,54.0,45.4,99,84,48,29.94,29.78,5,0,0,0.00
2013-9-15,80.8,65.1,53.2,65.0,58.9,52.9,99,83,50,30.02,29.93,6,1,0,0.00
2013-9-16,81.7,67.1,55.8,67.3,60.8,55.5,99,83,50,30.02,29.94,5,1,0,0.00
2013-9-17,74.8,66.0,59.0,64.1,60.7,57.0,99,84,61,30.07,29.98,7,1,0,0.00
2013-9-18,74.3,63.7,56.1,63.8,58.9,55.3,99,86,64,30.08,29.98,6,1,0,0.00
2013-9-19,81.1,65.9,54.9,67.5,60.9,54.6,99,86,56,30.04,29.91,4,0,0,0.00
2013-9-20,83.5,68.7,56.5,68.4,62.3,56.2,99,83,51,29.95,29.76,6,1,0,0.00
2013-9-21,69.6,64.8,59.2,66.4,63.8,58.8,99,97,84,29.78,29.56,7,2,0,2.31
2013-9-22,72.7,59.3,48.7,59.2,54.8,48.4,99,87,56,29.75,29.63,8,1,0,0.00
2013-9-23,77.5,60.7,48.0,64.0,55.6,47.7,99,86,53,29.87,29.75,8,1,0,0.00
2013-9-24,70.5,62.8,56.1,64.5,60.4,55.8,99,92,79,29.88,29.74,6,1,0,0.00
2013-9-25,66.6,62.9,61.2,64.6,62.3,60.9,99,98,91,29.74,29.66,5,1,0,1.88
2013-9-26,76.1,65.3,59.7,65.4,61.9,59.1,99,90,63,29.86,29.71,5,1,0,0.02
2013-9-27,77.0,62.9,52.2,63.4,57.7,51.9,99,86,53,29.99,29.86,6,1,0,0.00
2013-9-28,75.6,62.9,53.1,63.7,57.2,52.8,99,84,53,30.06,29.93,5,1,0,0.00
2013-9-29,70.9,60.1,51.6,60.7,55.4,51.3,99,86,58,29.99,29.86,4,1,0,0.00
2013-9-30,76.5,60.2,50.4,60.7,55.4,50.1,99,87,52,29.93,29.83,6,1,0,0.00
2013-10-1,77.0,60.8,50.0,64.9,57.2,49.7,99,90,59,30.01,29.90,3,0,0,0.00
2013-10-2,77.9,57.8,53.6,66.5,56.8,53.3,99,97,68,30.03,29.96,2,0,0,0.00
2013-10-3,77.4,64.2,59.2,61.0,59.9,58.9,99,88,57,29.97,29.90,0,0,0,0.00
2013-10-4,82.4,61.1,54.0,67.6,57.9,53.7,99,91,55,30.02,29.93,3,0,0,0.00
2013-10-5,83.7,70.4,56.5,67.6,63.0,56.2,99,80,51,30.00,29.86,6,1,0,0.00
2013-10-6,79.2,68.4,61.3,66.3,63.7,61.0,99,86,61,29.88,29.68,8,2,0,0.47
2013-10-7,66.2,57.8,48.6,63.2,53.5,48.1,99,87,64,29.85,29.66,8,3,0,1.18
2013-10-8,76.3,58.1,43.3,61.8,53.2,43.0,99,86,55,29.98,29.85,7,1,0,0.00
2013-10-9,74.8,59.7,48.6,60.8,54.5,48.3,99,85,56,30.03,29.93,7,1,0,0.00
2013-10-10,71.8,57.9,47.3,59.5,53.1,47.0,99,86,59,29.99,29.87,9,1,0,0.00
2013-10-11,73.9,58.0,45.3,58.8,52.8,45.0,99,86,53,29.92,29.82,9,1,0,0.00
2013-10-12,75.6,58.6,46.0,62.2,54.1,45.7,99,87,52,29.96,29.85,7,1,0,0.00
2013-10-13,75.9,60.1,47.3,63.2,56.1,47.0,99,88,62,30.05,29.95,8,1,0,0.00
2013-10-14,76.3,62.9,54.5,63.1,58.8,54.2,99,88,57,30.06,29.93,5,1,0,0.00
2013-10-15,69.3,60.5,53.1,60.5,56.9,52.8,99,89,67,29.99,29.86,6,1,0,0.00
2013-10-16,68.9,60.3,53.1,61.8,57.9,52.8,99,92,73,29.89,29.79,4,0,0,0.00
2013-10-17,70.0,61.6,53.8,66.7,60.8,51.5,99,97,86,29.80,29.70,7,1,0,0.11
2013-10-18,66.9,52.9,43.3,53.4,48.9,43.0,99,88,55,29.87,29.76,6,1,0,0.00
2013-10-19,64.9,53.8,46.0,54.2,50.1,45.7,99,88,63,29.83,29.74,7,1,0,0.00
2013-10-20,65.5,47.7,33.4,47.7,40.5,33.1,99,81,30,29.91,29.81,5,1,0,0.00
2013-10-21,69.6,49.7,33.6,52.1,43.3,33.3,99,83,43,29.96,29.83,7,1,0,0.00
2013-10-22,71.1,55.9,48.0,54.5,50.0,45.4,99,83,44,29.87,29.67,6,1,0,0.00
2013-10-23,52.0,45.8,33.4,49.4,39.4,32.5,99,80,54,29.90,29.64,11,3,0,0.00
2013-10-24,57.6,42.6,31.1,41.7,36.5,30.9,99,81,48,30.03,29.88,8,1,0,0.00
2013-10-25,49.3,37.8,27.5,36.1,27.1,23.8,95,68,37,30.20,30.03,14,3,0,0.00
2013-10-26,58.5,39.2,23.5,37.3,29.6,22.0,99,74,35,30.15,29.96,7,1,0,0.00
2013-10-27,63.0,51.8,41.9,52.0,46.3,37.4,99,82,63,29.97,29.91,4,0,0,0.00
2013-10-28,60.6,53.8,47.8,56.0,52.2,47.5,99,95,77,30.11,29.95,4,0,0,0.09
2013-10-29,68.9,54.6,46.0,59.1,51.9,45.7,99,92,66,30.17,30.06,4,0,0,0.00
2013-10-30,76.1,60.8,51.3,58.3,55.1,51.0,99,84,50,30.13,29.98,6,1,0,0.00
2013-10-31,69.4,63.2,59.0,62.1,57.5,53.2,99,82,71,30.00,29.60,9,3,0,0.13
2013-11-1,71.8,61.7,47.7,63.4,52.3,45.3,99,74,42,29.65,29.52,9,2,0,0.30
2013-11-2,61.3,49.9,39.0,47.7,41.6,36.2,99,75,43,29.89,29.64,8,2,0,0.00
2013-11-3,59.0,45.7,36.5,41.3,38.9,36.0,99,80,45,30.13,29.88,10,2,0,0.00
2013-11-4,61.9,47.6,37.0,39.3,36.3,33.9,99,68,39,30.25,30.13,8,2,0,0.00
2013-11-5,68.7,50.9,38.1,45.5,38.6,33.9,87,65,41,30.27,30.13,6,1,0,0.00
2013-11-6,68.7,59.4,48.2,55.5,51.8,37.5,94,77,61,30.17,29.92,11,2,0,0.00
2013-11-7,59.7,50.0,39.0,57.4,45.7,31.4,99,85,66,30.05,29.85,14,4,0,0.30
2013-11-8,54.1,43.0,30.6,31.7,26.7,22.1,90,57,29,30.15,30.04,11,3,0,0.00
2013-11-9,56.8,41.5,26.6,40.1,30.4,26.1,99,69,35,30.15,30.03,8,1,0,0.00
2013-11-10,64.8,48.9,34.5,41.9,35.4,28.6,99,64,34,30.13,30.04,11,2,0,0.00
2013-11-11,66.9,46.3,28.0,37.5,30.9,25.1,98,61,21,30.13,29.97,5,1,0,0.00
2013-11-12,50.4,37.6,25.5,40.6,29.0,15.0,89,71,54,30.27,29.96,17,5,0,0.00
2013-11-13,44.4,28.0,14.5,19.1,16.4,13.1,95,66,32,30.38,30.26,8,2,0,0.00
2013-11-14,59.5,36.7,17.4,26.5,17.3,11.0,99,55,15,30.28,30.09,6,1,0,0.00
2013-11-15,52.5,44.1,32.9,50.8,36.8,17.8,99,78,38,30.12,29.94,4,1,0,0.19
2013-11-16,62.4,56.1,51.1,56.7,53.8,50.8,99,92,79,30.03,29.93,7,2,0,0.01
2013-11-17,62.8,60.5,59.0,62.1,58.6,55.6,99,94,86,29.95,29.73,9,3,0,0.41
2013-11-18,63.1,55.5,44.4,62.8,41.3,31.0,99,63,34,29.92,29.71,13,4,0,0.13
2013-11-19,54.9,42.6,35.1,31.9,28.7,26.5,86,59,38,30.00,29.89,12,3,0,0.00
2013-11-20,56.7,45.2,34.3,34.8,28.9,24.2,83,54,34,30.13,29.98,10,3,0,0.00
2013-11-21,63.3,53.2,43.3,54.6,47.1,30.4,94,80,59,30.19,30.09,8,3,0,0.00
2013-11-22,63.3,57.9,55.2,60.0,56.8,54.9,99,96,89,30.15,30.00,6,1,0,0.27
2013-11-23,55.6,42.8,31.1,55.3,40.5,21.4,99,92,67,30.11,29.97,11,5,0,0.03
2013-11-24,37.2,27.1,19.9,21.7,15.1,9.6,85,62,35,30.27,30.10,11,4,0,0.00
2013-11-25,45.5,35.5,25.7,36.6,18.4,3.8,99,54,18,30.23,29.99,9,3,0,0.12
2013-11-26,47.7,42.6,35.8,47.4,42.3,35.5,99,99,99,29.98,29.50,12,2,0,3.54
2013-11-27,35.4,28.2,22.3,35.1,25.4,17.0,99,89,75,30.02,29.52,17,7,0,0.08
2013-11-28,47.7,28.3,14.0,26.1,20.4,13.3,99,77,31,30.25,30.02,8,1,0,0.04
2013-11-29,53.4,33.7,19.8,31.5,26.4,18.9,99,79,40,30.34,30.23,6,1,0,0.00
2013-11-30,54.9,39.1,29.7,29.0,26.1,24.0,83,62,33,30.33,30.12,6,1,0,0.00
2013-12-1,54.5,40.4,26.2,38.6,31.8,24.7,99,74,45,30.12,29.82,5,1,0,0.00
2013-12-2,46.8,43.6,40.3,46.5,42.4,35.7,99,96,78,29.81,29.62,3,1,0,0.24
2013-12-3,54.9,50.8,46.6,53.1,50.1,46.3,99,98,91,29.71,29.63,5,1,0,0.03
2013-12-4,64.6,58.4,52.2,60.0,56.8,51.9,99,95,83,29.84,29.70,6,2,0,0.00
2013-12-5,66.9,63.6,59.4,66.3,63.2,59.1,99,99,94,29.88,29.78,8,2,0,0.34
2013-12-6,69.3,62.6,45.7,66.1,61.7,45.4,99,97,87,29.90,29.75,14,5,0,1.86
2013-12-7,45.3,36.9,34.5,45.0,36.6,34.2,99,99,99,30.13,29.89,14,3,0,0.01
2013-12-8,50.4,44.8,37.0,50.1,44.5,36.7,99,99,98,30.08,29.89,9,3,0,0.87
2013-12-9,53.6,50.0,44.4,52.6,49.6,44.1,99,99,96,29.94,29.79,6,1,0,0.29
2013-12-10,46.6,36.5,24.4,46.3,34.8,24.2,99,94,71,30.14,29.76,16,4,0,0.74
2013-12-11,51.4,32.8,18.1,33.1,23.0,17.8,99,72,31,30.24,30.12,6,1,0,0.00
2013-12-12,38.5,29.8,22.1,24.2,19.3,9.6,93,68,30,30.27,30.16,9,4,0,0.00
2013-12-13,50.2,33.8,17.4,29.7,20.9,16.5,99,64,30,30.20,29.95,4,1,0,0.00
2013-12-14,49.8,46.6,41.7,49.5,42.1,22.5,99,87,44,29.98,29.60,7,2,0,0.96
2013-12-15,46.0,33.0,26.4,45.7,32.0,26.2,99,96,90,29.98,29.63,11,5,0,0.02
2013-12-16,52.5,33.5,20.7,35.2,27.4,20.3,99,82,38,30.04,29.93,6,1,0,0.00
2013-12-17,59.4,41.8,27.9,37.0,31.6,24.6,99,72,37,30.01,29.84,12,3,0,0.00
2013-12-18,47.8,35.1,26.2,24.7,19.8,9.5,81,57,26,30.12,30.01,12,3,0,0.00
2013-12-19,61.9,41.9,23.4,27.7,20.9,12.3,93,51,16,30.12,29.99,7,2,0,0.00
2013-12-20,60.6,52.1,39.6,52.9,39.1,25.9,89,63,41,30.02,29.90,6,2,0,0.00
2013-12-21,65.8,61.1,56.5,63.9,59.5,52.9,99,95,87,29.91,29.71,11,4,0,0.28
2013-12-22,66.7,55.1,51.1,64.3,54.8,50.8,99,99,92,29.91,29.71,8,2,0,2.21
2013-12-23,50.9,41.4,30.7,50.6,41.1,30.0,99,99,96,30.08,29.83,10,4,0,0.32
2013-12-24,32.5,27.5,18.1,29.6,22.2,16.2,98,81,55,30.21,30.07,12,5,0,0.00
2013-12-25,45.1,27.6,14.9,24.4,19.3,13.5,99,75,36,30.22,30.09,7,1,0,0.00
2013-12-26,47.7,31.9,20.7,30.9,24.8,20.2,99,79,42,30.17,30.06,5,1,0,0.00
2013-12-27,53.1,33.2,20.5,32.8,25.3,20.0,99,78,36,30.26,30.13,5,1,0,0.00
2013-12-28,41.2,33.3,24.4,40.9,32.6,24.2,99,97,69,30.21,29.73,9,1,0,1.37
2013-12-29,46.4,42.1,36.3,46.1,41.6,36.0,99,98,91,29.85,29.63,10,2,0,0.58
2013-12-30,40.8,37.3,33.6,40.5,36.6,33.1,99,97,89,30.00,29.82,7,2,0,0.00
2013-12-31,39.9,31.6,25.5,33.1,26.6,20.9,99,84,52,30.20,29.98,7,1,0,0.00
2014-1-1,48.9,35.4,23.0,32.0,26.7,22.7,99,74,42,30.13,29.90,6,2,0,0.00
2014-1-2,44.8,35.9,16.7,44.5,33.5,14.5,99,91,74,29.90,29.55,23,5,0,0.28